Time;durP1;ratioP1;P1;durP2;ratioP2;P2;SDS_P1;SDS_P2;PMS_P1;PMS_P2;Temp;Humidity;BMP_temperature;BMP_pressure;BME280_temperature;BME280_humidity;BME280_pressure;Samples;Min_cycle;Max_cycle;Signal;HPM_P1;HPM_P2
2022/07/09 00:02:21;;;;;;;0.93;0.60;;;;;;;;;;5053776;28;20024;-63
2022/07/09 00:04:47;;;;;;;0.67;0.53;;;;;;;;;;5050707;28;20037;-63
2022/07/09 00:07:14;;;;;;;0.50;0.40;;;;;;;;;;5048326;28;20029;-63
2022/07/09 00:09:41;;;;;;;0.83;0.50;;;;;;;;;;5056705;28;20031;-62
2022/07/09 00:12:07;;;;;;;8.83;0.80;;;;;;;;;;5067451;28;20375;-63
2022/07/09 00:14:34;;;;;;;1.47;0.77;;;;;;;;;;5070387;28;20028;-62
2022/07/09 00:17:01;;;;;;;1.53;0.80;;;;;;;;;;5073187;28;20398;-63
2022/07/09 00:19:27;;;;;;;1.67;0.63;;;;;;;;;;5073162;28;20375;-62
2022/07/09 00:21:54;;;;;;;1.80;0.63;;;;;;;;;;5060492;28;20049;-63
2022/07/09 00:24:21;;;;;;;1.33;0.80;;;;;;;;;;5052993;28;20029;-62
2022/07/09 00:26:48;;;;;;;1.80;0.73;;;;;;;;;;5050808;28;20471;-63
2022/07/09 00:29:14;;;;;;;2.87;0.80;;;;;;;;;;5047723;28;20150;-63
2022/07/09 00:31:41;;;;;;;1.97;0.60;;;;;;;;;;5047921;28;20357;-63
2022/07/09 00:34:08;;;;;;;1.63;0.63;;;;;;;;;;5059973;28;20435;-62
2022/07/09 00:36:34;;;;;;;1.27;0.67;;;;;;;;;;5062258;28;20388;-62
2022/07/09 00:39:01;;;;;;;0.83;0.47;;;;;;;;;;5052914;28;20387;-62
2022/07/09 00:41:27;;;;;;;2.27;0.60;;;;;;;;;;5052644;28;20475;-63
2022/07/09 00:43:54;;;;;;;15.83;1.00;;;;;;;;;;5052860;28;20025;-63
2022/07/09 00:46:21;;;;;;;1.50;0.70;;;;;;;;;;5055986;28;20493;-63
2022/07/09 00:48:47;;;;;;;2.17;0.60;;;;;;;;;;5070924;28;20116;-63
2022/07/09 00:51:15;;;;;;;1.33;0.47;;;;;;;;;;5067705;28;20035;-63
2022/07/09 00:53:42;;;;;;;1.47;0.73;;;;;;;;;;5067569;28;20024;-62
2022/07/09 00:56:09;;;;;;;1.57;0.70;;;;;;;;;;5067667;28;20449;-63
2022/07/09 00:58:36;;;;;;;4.33;0.83;;;;;;;;;;5061246;28;20053;-63
2022/07/09 01:01:03;;;;;;;1.60;0.57;;;;;;;;;;5052286;28;20041;-63
2022/07/09 01:03:29;;;;;;;1.10;0.53;;;;;;;;;;5052360;28;20032;-63
2022/07/09 01:05:56;;;;;;;0.37;0.30;;;;;;;;;;5052484;28;20122;-63
2022/07/09 01:08:23;;;;;;;1.30;0.53;;;;;;;;;;5052418;28;20463;-63
2022/07/09 01:10:52;;;;;;;10.67;1.43;;;;;;;;;;5060232;28;20119;-62
2022/07/09 01:13:18;;;;;;;2.47;0.90;;;;;;;;;;5067442;28;20109;-62
2022/07/09 01:15:45;;;;;;;2.13;0.90;;;;;;;;;;5067208;28;20033;-63
2022/07/09 01:18:12;;;;;;;1.10;0.67;;;;;;;;;;5067118;28;20025;-62
2022/07/09 01:20:39;;;;;;;0.97;0.77;;;;;;;;;;5067553;28;20028;-62
2022/07/09 01:23:07;;;;;;;2.30;0.63;;;;;;;;;;5060596;28;20032;-63
2022/07/09 01:25:38;;;;;;;4.00;0.90;;;;;;;;;;5052381;28;20021;-62
2022/07/09 01:28:06;;;;;;;1.10;0.53;;;;;;;;;;5052205;28;20036;-62
2022/07/09 01:30:33;;;;;;;10.37;1.40;;;;;;;;;;5064637;28;20019;-63
2022/07/09 01:33:00;;;;;;;1.80;0.90;;;;;;;;;;5070527;28;20040;-63
2022/07/09 01:35:27;;;;;;;0.23;0.20;;;;;;;;;;5067071;28;20373;-63
2022/07/09 01:37:54;;;;;;;1.20;0.70;;;;;;;;;;5065086;28;20021;-62
2022/07/09 01:40:21;;;;;;;0.53;0.47;;;;;;;;;;5066693;28;20047;-63
2022/07/09 01:42:48;;;;;;;1.50;0.93;;;;;;;;;;5067544;28;20501;-63
2022/07/09 01:45:15;;;;;;;0.93;0.60;;;;;;;;;;5061570;28;20537;-63
2022/07/09 01:47:42;;;;;;;3.83;1.53;;;;;;;;;;5052021;28;20349;-63
2022/07/09 01:50:09;;;;;;;0.87;0.50;;;;;;;;;;5051653;28;20158;-63
2022/07/09 01:52:35;;;;;;;1.37;0.57;;;;;;;;;;5052072;28;20025;-63
2022/07/09 01:55:02;;;;;;;0.57;0.37;;;;;;;;;;5058706;28;20107;-62
2022/07/09 01:57:29;;;;;;;0.50;0.30;;;;;;;;;;5066826;28;20475;-62
2022/07/09 01:59:55;;;;;;;0.23;0.13;;;;;;;;;;5066839;28;20029;-63
2022/07/09 02:02:22;;;;;;;0.70;0.43;;;;;;;;;;5066831;28;20112;-63
2022/07/09 02:04:49;;;;;;;16.70;0.83;;;;;;;;;;5066572;28;20027;-63
2022/07/09 02:07:15;;;;;;;2.67;1.10;;;;;;;;;;5064782;28;20468;-62
2022/07/09 02:09:42;;;;;;;4.07;1.43;;;;;;;;;;5051991;28;20510;-63
2022/07/09 02:12:09;;;;;;;0.97;0.60;;;;;;;;;;5051920;28;20033;-63
2022/07/09 02:14:36;;;;;;;0.83;0.50;;;;;;;;;;5051725;28;20021;-63
2022/07/09 02:17:03;;;;;;;0.97;0.40;;;;;;;;;;5051641;28;20040;-63
2022/07/09 02:19:30;;;;;;;1.60;0.63;;;;;;;;;;5053150;28;20025;-63
2022/07/09 02:21:57;;;;;;;2.00;0.87;;;;;;;;;;5066171;28;20041;-63
2022/07/09 02:24:23;;;;;;;0.90;0.70;;;;;;;;;;5066630;28;20104;-63
2022/07/09 02:26:50;;;;;;;1.97;0.63;;;;;;;;;;5066733;28;20021;-62
2022/07/09 02:29:17;;;;;;;1.97;0.97;;;;;;;;;;5071355;28;20095;-63
2022/07/09 02:31:43;;;;;;;2.50;1.07;;;;;;;;;;5061849;28;20025;-62
2022/07/09 02:34:10;;;;;;;0.20;0.20;;;;;;;;;;5052894;28;20025;-62
2022/07/09 02:36:37;;;;;;;0.50;0.40;;;;;;;;;;5055263;28;20024;-62
2022/07/09 02:39:03;;;;;;;0.87;0.67;;;;;;;;;;5054806;28;20021;-63
2022/07/09 02:41:30;;;;;;;0.73;0.57;;;;;;;;;;5050191;28;20627;-63
2022/07/09 02:43:57;;;;;;;0.83;0.50;;;;;;;;;;5061134;28;20543;-63
2022/07/09 02:46:23;;;;;;;2.00;0.70;;;;;;;;;;5070079;28;20398;-63
2022/07/09 02:48:50;;;;;;;0.97;0.57;;;;;;;;;;5069863;28;20082;-62
2022/07/09 02:51:17;;;;;;;1.07;0.60;;;;;;;;;;5073816;28;20029;-63
2022/07/09 02:53:43;;;;;;;0.57;0.30;;;;;;;;;;5074846;28;20235;-63
2022/07/09 02:56:11;;;;;;;0.50;0.40;;;;;;;;;;5062195;28;20033;-63
2022/07/09 02:58:37;;;;;;;2.53;0.83;;;;;;;;;;5054658;28;20075;-62
2022/07/09 03:01:05;;;;;;;2.30;0.67;;;;;;;;;;5054590;28;20037;-62
2022/07/09 03:03:35;;;;;;;1.07;0.77;;;;;;;;;;5050313;28;20029;-62
2022/07/09 03:06:02;;;;;;;1.33;0.80;;;;;;;;;;5049665;28;20479;-63
2022/07/09 03:08:29;;;;;;;2.70;1.00;;;;;;;;;;5064381;28;20109;-63
2022/07/09 03:10:56;;;;;;;0.40;0.40;;;;;;;;;;5068986;28;20044;-63
2022/07/09 03:13:22;;;;;;;5.93;0.60;;;;;;;;;;5073104;28;20019;-63
2022/07/09 03:15:49;;;;;;;1.57;0.70;;;;;;;;;;5072776;28;20025;-62
2022/07/09 03:18:16;;;;;;;0.77;0.43;;;;;;;;;;5054418;28;20029;-62
2022/07/09 03:20:42;;;;;;;0.50;0.37;;;;;;;;;;5054309;28;20120;-62
2022/07/09 03:23:12;;;;;;;1.33;0.80;;;;;;;;;;5054339;28;20079;-62
2022/07/09 03:25:39;;;;;;;1.13;0.87;;;;;;;;;;5049953;28;20057;-62
2022/07/09 03:28:06;;;;;;;1.77;0.40;;;;;;;;;;5068104;28;20021;-63
2022/07/09 03:30:33;;;;;;;1.13;0.60;;;;;;;;;;5068896;28;20035;-63
2022/07/09 03:32:59;;;;;;;1.63;0.97;;;;;;;;;;5048883;28;20029;-62
2022/07/09 03:35:26;;;;;;;6.63;0.83;;;;;;;;;;5052497;28;20039;-62
2022/07/09 03:37:53;;;;;;;7.67;0.60;;;;;;;;;;5054174;28;20025;-62
2022/07/09 03:40:19;;;;;;;0.67;0.33;;;;;;;;;;5053884;28;20056;-63
2022/07/09 03:42:46;;;;;;;1.93;0.70;;;;;;;;;;5070474;28;20024;-62
2022/07/09 03:45:12;;;;;;;1.23;0.73;;;;;;;;;;5073934;28;20038;-63
2022/07/09 03:47:39;;;;;;;4.07;0.50;;;;;;;;;;5070375;28;20028;-62
2022/07/09 03:50:06;;;;;;;1.77;0.80;;;;;;;;;;5068365;28;20047;-63
2022/07/09 03:52:33;;;;;;;11.23;1.40;;;;;;;;;;5068710;28;20049;-64
2022/07/09 03:55:00;;;;;;;2.90;1.00;;;;;;;;;;5049804;28;20100;-62
2022/07/09 03:57:26;;;;;;;0.57;0.50;;;;;;;;;;5051387;28;20025;-63
2022/07/09 03:59:53;;;;;;;0.93;0.47;;;;;;;;;;5053180;28;20025;-62
2022/07/09 04:02:20;;;;;;;29.80;1.17;;;;;;;;;;5053410;28;20468;-62
2022/07/09 04:04:47;;;;;;;14.67;1.37;;;;;;;;;;5053581;28;20028;-64
2022/07/09 04:07:13;;;;;;;5.83;1.13;;;;;;;;;;5072888;28;20467;-62
2022/07/09 04:09:40;;;;;;;1.50;0.77;;;;;;;;;;5070299;28;20115;-62
2022/07/09 04:12:07;;;;;;;1.60;0.80;;;;;;;;;;5068549;28;20032;-63
2022/07/09 04:14:34;;;;;;;2.80;1.00;;;;;;;;;;5068165;28;20450;-62
2022/07/09 04:17:01;;;;;;;0.80;0.60;;;;;;;;;;5066453;28;20031;-62
2022/07/09 04:19:28;;;;;;;6.53;0.87;;;;;;;;;;5050664;28;20024;-62
2022/07/09 04:21:54;;;;;;;2.17;1.23;;;;;;;;;;5053171;28;20035;-63
2022/07/09 04:24:21;;;;;;;2.50;1.40;;;;;;;;;;5052971;28;20025;-62
2022/07/09 04:26:47;;;;;;;13.03;1.03;;;;;;;;;;5053037;28;20025;-63
2022/07/09 04:29:14;;;;;;;9.07;1.40;;;;;;;;;;5057100;28;20111;-63
2022/07/09 04:31:41;;;;;;;3.37;1.20;;;;;;;;;;5069834;28;20078;-62
2022/07/09 04:34:07;;;;;;;2.07;1.20;;;;;;;;;;5067908;28;20384;-63
2022/07/09 04:36:34;;;;;;;1.77;0.73;;;;;;;;;;5067833;28;20427;-62
2022/07/09 04:39:01;;;;;;;1.27;0.70;;;;;;;;;;5067881;28;20543;-63
2022/07/09 04:41:28;;;;;;;2.00;1.00;;;;;;;;;;5060918;28;20537;-62
2022/07/09 04:43:55;;;;;;;3.50;1.57;;;;;;;;;;5052815;28;20056;-62
2022/07/09 04:46:22;;;;;;;3.57;1.23;;;;;;;;;;5053002;28;20451;-62
2022/07/09 04:48:49;;;;;;;2.43;0.80;;;;;;;;;;5052183;28;20037;-62
2022/07/09 04:51:16;;;;;;;1.63;0.90;;;;;;;;;;5052638;28;20090;-63
2022/07/09 04:53:42;;;;;;;1.53;1.20;;;;;;;;;;5059664;28;20115;-62
2022/07/09 04:56:09;;;;;;;14.93;1.93;;;;;;;;;;5067233;28;20493;-62
2022/07/09 04:58:37;;;;;;;1.80;1.07;;;;;;;;;;5067383;28;20016;-62
2022/07/09 05:01:04;;;;;;;3.30;0.83;;;;;;;;;;5067438;28;20029;-62
2022/07/09 05:03:31;;;;;;;0.90;0.80;;;;;;;;;;5069154;28;20028;-62
2022/07/09 05:05:58;;;;;;;4.60;1.73;;;;;;;;;;5060203;28;20032;-62
2022/07/09 05:08:25;;;;;;;8.70;1.87;;;;;;;;;;5052387;28;20067;-62
2022/07/09 05:10:52;;;;;;;2.63;1.27;;;;;;;;;;5052639;28;20032;-62
2022/07/09 05:13:18;;;;;;;12.43;2.63;;;;;;;;;;5052354;28;20138;-62
2022/07/09 05:15:45;;;;;;;1.10;0.80;;;;;;;;;;5050398;28;20383;-62
2022/07/09 05:18:12;;;;;;;1.50;1.00;;;;;;;;;;5058719;28;20468;-62
2022/07/09 05:20:42;;;;;;;1.43;0.97;;;;;;;;;;5066841;28;20044;-63
2022/07/09 05:23:08;;;;;;;4.43;1.40;;;;;;;;;;5067244;28;20438;-62
2022/07/09 05:25:35;;;;;;;1.77;0.93;;;;;;;;;;5068455;28;20032;-62
2022/07/09 05:28:02;;;;;;;4.40;2.00;;;;;;;;;;5072425;28;20433;-62
2022/07/09 05:30:28;;;;;;;1.30;1.00;;;;;;;;;;5058894;28;20494;-62
2022/07/09 05:32:55;;;;;;;4.03;1.67;;;;;;;;;;5051943;28;20036;-62
2022/07/09 05:35:22;;;;;;;2.13;1.40;;;;;;;;;;5052117;28;20024;-62
2022/07/09 05:37:48;;;;;;;2.97;1.67;;;;;;;;;;5050283;28;20028;-62
2022/07/09 05:40:15;;;;;;;0.87;0.77;;;;;;;;;;5047134;28;20095;-62
2022/07/09 05:42:42;;;;;;;2.57;1.17;;;;;;;;;;5062278;28;20021;-62
2022/07/09 05:45:09;;;;;;;2.27;1.20;;;;;;;;;;5067231;28;20028;-62
2022/07/09 05:47:35;;;;;;;1.47;0.80;;;;;;;;;;5067869;28;20115;-62
2022/07/09 05:50:02;;;;;;;3.03;1.27;;;;;;;;;;5071770;28;20020;-62
2022/07/09 05:52:29;;;;;;;1.93;1.40;;;;;;;;;;5072069;28;20024;-62
2022/07/09 05:54:55;;;;;;;2.27;1.50;;;;;;;;;;5056090;28;20037;-62
2022/07/09 05:57:22;;;;;;;2.40;1.20;;;;;;;;;;5052101;28;20078;-62
2022/07/09 05:59:49;;;;;;;0.40;0.40;;;;;;;;;;5050734;28;20013;-63
2022/07/09 06:02:15;;;;;;;2.10;1.50;;;;;;;;;;5046798;28;20040;-62
2022/07/09 06:04:42;;;;;;;0.83;0.67;;;;;;;;;;5046889;28;20021;-62
2022/07/09 06:07:09;;;;;;;6.93;0.77;;;;;;;;;;5064749;28;20475;-62
2022/07/09 06:09:36;;;;;;;0.67;0.67;;;;;;;;;;5069123;28;20032;-62
2022/07/09 06:12:03;;;;;;;1.63;1.13;;;;;;;;;;5075472;28;20016;-61
2022/07/09 06:14:30;;;;;;;9.20;1.33;;;;;;;;;;5075702;28;20025;-62
2022/07/09 06:16:56;;;;;;;8.57;1.30;;;;;;;;;;5075346;28;20413;-62
2022/07/09 06:19:23;;;;;;;2.50;1.10;;;;;;;;;;5056502;28;20108;-62
2022/07/09 06:21:50;;;;;;;2.93;1.63;;;;;;;;;;5054895;28;20036;-62
2022/07/09 06:24:16;;;;;;;1.17;1.07;;;;;;;;;;5050248;28;20059;-62
2022/07/09 06:26:46;;;;;;;1.80;0.83;;;;;;;;;;5050076;28;20047;-62
2022/07/09 06:29:13;;;;;;;2.07;1.43;;;;;;;;;;5050887;28;20455;-62
2022/07/09 06:31:39;;;;;;;2.67;1.37;;;;;;;;;;5070618;28;20371;-62
2022/07/09 06:34:06;;;;;;;0.50;0.40;;;;;;;;;;5065079;28;20498;-62
2022/07/09 06:36:33;;;;;;;2.40;1.60;;;;;;;;;;5055022;28;20104;-62
2022/07/09 06:41:44;;;;;;;0.30;0.30;;;;;;;;;;5055090;28;20047;-62
2022/07/09 06:44:11;;;;;;;1.03;0.90;;;;;;;;;;5063776;28;20111;-62
2022/07/09 06:46:38;;;;;;;19.00;2.50;;;;;;;;;;5063739;28;20025;-62
2022/07/09 06:49:05;;;;;;;2.43;0.80;;;;;;;;;;5069519;28;20032;-62
2022/07/09 06:51:32;;;;;;;1.70;1.20;;;;;;;;;;5069984;28;20530;-61
2022/07/09 06:53:59;;;;;;;1.80;1.20;;;;;;;;;;5069844;28;20036;-62
2022/07/09 06:56:26;;;;;;;0.83;0.70;;;;;;;;;;5065142;28;20542;-62
2022/07/09 06:58:52;;;;;;;2.57;1.27;;;;;;;;;;5054881;28;20380;-62
2022/07/09 07:01:19;;;;;;;7.43;1.60;;;;;;;;;;5054669;28;20391;-61
2022/07/09 07:03:46;;;;;;;1.90;1.27;;;;;;;;;;5054550;28;20369;-62
2022/07/09 07:06:12;;;;;;;9.90;0.70;;;;;;;;;;5054245;28;20028;-62
2022/07/09 07:08:39;;;;;;;10.30;1.57;;;;;;;;;;5061586;28;20032;-62
2022/07/09 07:11:06;;;;;;;1.37;0.73;;;;;;;;;;5069475;28;20024;-62
2022/07/09 07:13:32;;;;;;;5.27;0.80;;;;;;;;;;5069432;28;20035;-62
2022/07/09 07:15:59;;;;;;;1.03;0.73;;;;;;;;;;5069485;28;20438;-61
2022/07/09 07:18:25;;;;;;;2.80;1.40;;;;;;;;;;5074275;28;20028;-61
2022/07/09 07:20:52;;;;;;;0.70;0.57;;;;;;;;;;5059300;28;20097;-62
2022/07/09 07:23:19;;;;;;;1.53;0.73;;;;;;;;;;5055171;28;20025;-61
2022/07/09 07:25:45;;;;;;;35.90;1.83;;;;;;;;;;5054131;28;20032;-62
2022/07/09 07:28:12;;;;;;;4.40;1.70;;;;;;;;;;5053783;28;20035;-62
2022/07/09 07:30:39;;;;;;;1.03;0.60;;;;;;;;;;5049134;28;20297;-61
2022/07/09 07:33:05;;;;;;;1.40;0.77;;;;;;;;;;5050163;28;20060;-61
2022/07/09 07:35:32;;;;;;;7.30;0.70;;;;;;;;;;5049089;28;20032;-62
2022/07/09 07:37:59;;;;;;;3.40;1.33;;;;;;;;;;5049089;28;20095;-62
2022/07/09 07:40:26;;;;;;;1.07;0.97;;;;;;;;;;5053313;28;20044;-62
2022/07/09 07:42:53;;;;;;;1.60;0.63;;;;;;;;;;5053909;28;20036;-61
2022/07/09 07:45:19;;;;;;;0.77;0.77;;;;;;;;;;5067319;28;20349;-62
2022/07/09 07:47:46;;;;;;;1.13;0.77;;;;;;;;;;5073759;28;20025;-61
2022/07/09 07:50:13;;;;;;;0.70;0.53;;;;;;;;;;5073987;28;20016;-61
2022/07/09 07:52:39;;;;;;;0.77;0.70;;;;;;;;;;5068872;28;20138;-61
2022/07/09 07:55:06;;;;;;;1.70;0.70;;;;;;;;;;5068754;28;20029;-62
2022/07/09 07:57:33;;;;;;;2.40;1.03;;;;;;;;;;5052885;28;20033;-62
2022/07/09 08:00:00;;;;;;;0.53;0.50;;;;;;;;;;5048508;28;20028;-61
2022/07/09 08:02:27;;;;;;;0.97;0.67;;;;;;;;;;5052684;28;20392;-61
2022/07/09 08:04:53;;;;;;;1.00;0.70;;;;;;;;;;5053222;28;20036;-61
2022/07/09 08:07:20;;;;;;;5.33;1.67;;;;;;;;;;5053649;28;20029;-61
2022/07/09 08:09:46;;;;;;;1.47;0.93;;;;;;;;;;5071979;28;20465;-61
2022/07/09 08:12:13;;;;;;;6.07;1.27;;;;;;;;;;5073505;28;20488;-61
2022/07/09 08:14:40;;;;;;;0.83;0.60;;;;;;;;;;5068917;28;20483;-61
2022/07/09 08:17:06;;;;;;;2.00;0.80;;;;;;;;;;5067921;28;20021;-62
2022/07/09 08:19:33;;;;;;;1.07;0.70;;;;;;;;;;5068292;28;20032;-61
2022/07/09 08:22:00;;;;;;;1.33;0.90;;;;;;;;;;5049762;28;20467;-61
2022/07/09 08:24:27;;;;;;;0.83;0.47;;;;;;;;;;5052075;28;20372;-61
2022/07/09 08:26:54;;;;;;;1.93;1.03;;;;;;;;;;5053295;28;20542;-61
2022/07/09 08:29:20;;;;;;;2.07;1.17;;;;;;;;;;5053204;28;20108;-61
2022/07/09 08:31:49;;;;;;;0.97;0.63;;;;;;;;;;5052357;28;20032;-61
2022/07/09 08:34:16;;;;;;;0.53;0.40;;;;;;;;;;5070544;28;20032;-61
2022/07/09 08:36:42;;;;;;;1.60;0.77;;;;;;;;;;5068905;28;20385;-61
2022/07/09 08:39:09;;;;;;;0.50;0.40;;;;;;;;;;5067762;28;20024;-61
2022/07/09 08:41:36;;;;;;;1.30;0.70;;;;;;;;;;5067760;28;20029;-61
2022/07/09 08:44:05;;;;;;;0.77;0.57;;;;;;;;;;5065479;28;20470;-61
2022/07/09 08:46:35;;;;;;;1.60;1.03;;;;;;;;;;5071049;28;20028;-61
2022/07/09 08:49:02;;;;;;;7.20;0.93;;;;;;;;;;5072689;28;20016;-61
2022/07/09 08:51:30;;;;;;;0.33;0.33;;;;;;;;;;5072778;28;20034;-61
2022/07/09 08:53:57;;;;;;;11.17;1.00;;;;;;;;;;5059867;28;20032;-61
2022/07/09 08:56:24;;;;;;;0.93;0.67;;;;;;;;;;5052462;28;20021;-61
2022/07/09 08:58:50;;;;;;;1.87;0.83;;;;;;;;;;5048699;28;20028;-61
2022/07/09 09:01:17;;;;;;;3.03;0.53;;;;;;;;;;5048576;28;20044;-61
2022/07/09 09:03:44;;;;;;;1.43;0.90;;;;;;;;;;5047137;28;20040;-61
2022/07/09 09:06:12;;;;;;;4.63;0.80;;;;;;;;;;5047422;28;20053;-61
2022/07/09 09:08:39;;;;;;;0.87;0.50;;;;;;;;;;5050644;28;20031;-61
2022/07/09 09:11:06;;;;;;;0.93;0.60;;;;;;;;;;5057094;28;20021;-60
2022/07/09 09:13:46;;;;;;;6.23;1.27;;;;;;;;;;5072399;28;20632;-61
2022/07/09 09:16:15;;;;;;;1.47;0.83;;;;;;;;;;5071921;28;20017;-61
2022/07/09 09:18:42;;;;;;;6.00;1.57;;;;;;;;;;5072152;28;20021;-61
2022/07/09 09:21:09;;;;;;;0.93;0.57;;;;;;;;;;5068021;28;20028;-61
2022/07/09 09:23:46;;;;;;;1.43;0.97;;;;;;;;;;5059965;28;20096;-61
2022/07/09 09:26:14;;;;;;;1.07;0.70;;;;;;;;;;5047283;28;20399;-61
2022/07/09 09:28:48;;;;;;;1.33;0.90;;;;;;;;;;5046756;28;20021;-61
2022/07/09 09:31:30;;;;;;;1.80;0.87;;;;;;;;;;5051134;28;20063;-61
2022/07/09 09:33:58;;;;;;;1.63;1.07;;;;;;;;;;5052360;28;20029;-61
2022/07/09 09:36:35;;;;;;;0.73;0.60;;;;;;;;;;5063030;28;20032;-61
2022/07/09 09:39:24;;;;;;;0.60;0.50;;;;;;;;;;5072221;28;20024;-62
2022/07/09 09:41:52;;;;;;;2.43;1.17;;;;;;;;;;5070961;28;20090;-61
2022/07/09 09:44:21;;;;;;;1.37;0.83;;;;;;;;;;5070473;28;20031;-61
2022/07/09 09:46:48;;;;;;;1.03;0.57;;;;;;;;;;5070765;28;20024;-61
2022/07/09 09:49:16;;;;;;;1.57;1.00;;;;;;;;;;5054533;28;20115;-61
2022/07/09 09:51:43;;;;;;;3.73;0.93;;;;;;;;;;5051562;28;20045;-61
2022/07/09 09:54:10;;;;;;;4.20;0.73;;;;;;;;;;5055895;28;20052;-61
2022/07/09 09:56:36;;;;;;;1.63;0.70;;;;;;;;;;5056057;28;20028;-61
2022/07/09 09:59:03;;;;;;;1.30;0.73;;;;;;;;;;5055916;28;20380;-61
2022/07/09 10:01:30;;;;;;;0.70;0.40;;;;;;;;;;5071243;28;20028;-61
2022/07/09 10:03:57;;;;;;;1.77;1.27;;;;;;;;;;5074665;28;20064;-61
2022/07/09 10:06:25;;;;;;;2.50;0.93;;;;;;;;;;5070663;28;20028;-61
2022/07/09 10:08:52;;;;;;;1.37;0.70;;;;;;;;;;5070933;28;20035;-61
2022/07/09 10:11:19;;;;;;;1.33;0.90;;;;;;;;;;5070570;28;20408;-61
2022/07/09 10:13:54;;;;;;;1.63;0.80;;;;;;;;;;5055367;28;20430;-62
2022/07/09 10:16:41;;;;;;;8.13;0.93;;;;;;;;;;5055181;28;20078;-61
2022/07/09 10:19:08;;;;;;;5.40;1.37;;;;;;;;;;5055430;28;20031;-61
2022/07/09 10:21:41;;;;;;;1.33;0.67;;;;;;;;;;5055228;28;20036;-61
2022/07/09 10:24:09;;;;;;;0.73;0.53;;;;;;;;;;5055377;28;20379;-61
2022/07/09 10:26:42;;;;;;;0.57;0.53;;;;;;;;;;5073030;28;20045;-61
2022/07/09 10:29:27;;;;;;;1.10;0.93;;;;;;;;;;5070437;28;20024;-61
2022/07/09 10:31:54;;;;;;;1.97;1.50;;;;;;;;;;5070329;28;20029;-61
2022/07/09 10:34:32;;;;;;;0.93;0.73;;;;;;;;;;5070521;28;20375;-61
2022/07/09 10:37:04;;;;;;;0.90;0.70;;;;;;;;;;5064145;28;20029;-61
2022/07/09 10:39:31;;;;;;;6.33;1.53;;;;;;;;;;5055016;28;20067;-61
2022/07/09 10:42:20;;;;;;;2.77;1.10;;;;;;;;;;5055040;28;20549;-62
2022/07/09 10:44:49;;;;;;;0.63;0.63;;;;;;;;;;5054606;28;20031;-61
2022/07/09 10:47:16;;;;;;;1.83;1.47;;;;;;;;;;5054989;28;20415;-61
2022/07/09 10:49:43;;;;;;;2.50;1.57;;;;;;;;;;5062780;28;20060;-62
2022/07/09 10:52:10;;;;;;;1.60;1.30;;;;;;;;;;5069936;28;20490;-61
2022/07/09 10:54:46;;;;;;;1.97;1.30;;;;;;;;;;5069091;28;20463;-61
2022/07/09 10:57:13;;;;;;;3.63;0.67;;;;;;;;;;5069462;28;20020;-61
2022/07/09 10:59:45;;;;;;;1.57;1.17;;;;;;;;;;5073177;28;20467;-61
2022/07/09 11:02:19;;;;;;;0.77;0.77;;;;;;;;;;5060781;28;20060;-61
2022/07/09 11:04:49;;;;;;;1.20;1.10;;;;;;;;;;5054703;28;20451;-61
2022/07/09 11:07:23;;;;;;;2.47;0.83;;;;;;;;;;5054596;28;20017;-61
2022/07/09 11:09:50;;;;;;;3.20;1.80;;;;;;;;;;5055165;28;20459;-61
2022/07/09 11:12:18;;;;;;;1.50;1.27;;;;;;;;;;5049905;28;20025;-61
2022/07/09 11:14:48;;;;;;;1.80;1.37;;;;;;;;;;5069098;28;20029;-61
2022/07/09 11:17:16;;;;;;;1.70;1.23;;;;;;;;;;5069544;28;20024;-61
2022/07/09 11:19:43;;;;;;;4.43;1.20;;;;;;;;;;5069462;28;20031;-62
2022/07/09 11:22:10;;;;;;;1.63;1.10;;;;;;;;;;5072826;28;20029;-61
2022/07/09 11:24:37;;;;;;;1.63;0.93;;;;;;;;;;5074448;28;20418;-61
2022/07/09 11:27:04;;;;;;;5.90;1.70;;;;;;;;;;5054711;28;20029;-61
2022/07/09 11:29:31;;;;;;;1.97;1.17;;;;;;;;;;5054043;28;20049;-61
2022/07/09 11:31:57;;;;;;;1.83;1.17;;;;;;;;;;5054116;28;20029;-61
2022/07/09 11:34:24;;;;;;;3.50;1.80;;;;;;;;;;5049591;28;20523;-61
2022/07/09 11:36:57;;;;;;;1.67;1.03;;;;;;;;;;5049776;28;20018;-61
2022/07/09 11:39:33;;;;;;;3.97;1.53;;;;;;;;;;5068909;28;20035;-61
2022/07/09 11:42:01;;;;;;;2.77;1.70;;;;;;;;;;5068973;28;20040;-61
2022/07/09 11:44:28;;;;;;;5.07;1.33;;;;;;;;;;5073304;28;20017;-61
2022/07/09 11:47:06;;;;;;;3.83;1.57;;;;;;;;;;5073592;28;20031;-61
2022/07/09 11:49:33;;;;;;;3.70;0.80;;;;;;;;;;5069565;28;20476;-61
2022/07/09 11:52:00;;;;;;;0.73;0.70;;;;;;;;;;5053867;28;20029;-61
2022/07/09 11:54:28;;;;;;;2.53;1.40;;;;;;;;;;5053686;28;20029;-61
2022/07/09 11:56:54;;;;;;;1.37;0.87;;;;;;;;;;5048989;28;20021;-60
2022/07/09 11:59:34;;;;;;;4.50;1.63;;;;;;;;;;5048613;28;20077;-62
2022/07/09 12:02:02;;;;;;;1.50;1.17;;;;;;;;;;5054145;28;20048;-61
2022/07/09 12:04:32;;;;;;;2.93;1.47;;;;;;;;;;5068249;28;20032;-61
2022/07/09 12:06:58;;;;;;;2.43;1.20;;;;;;;;;;5073555;28;20059;-61
2022/07/09 12:09:29;;;;;;;1.87;1.20;;;;;;;;;;5073535;28;20115;-61
2022/07/09 12:11:56;;;;;;;1.87;1.30;;;;;;;;;;5073516;28;20497;-61
2022/07/09 12:14:23;;;;;;;1.77;1.23;;;;;;;;;;5061699;28;20033;-61
2022/07/09 12:16:49;;;;;;;1.50;1.40;;;;;;;;;;5052753;28;20024;-61
2022/07/09 12:19:16;;;;;;;0.70;0.70;;;;;;;;;;5048258;28;20052;-61
2022/07/09 12:21:43;;;;;;;4.80;1.63;;;;;;;;;;5048022;28;20036;-61
2022/07/09 12:24:09;;;;;;;1.93;1.33;;;;;;;;;;5048181;28;20033;-62
2022/07/09 12:26:37;;;;;;;5.10;1.67;;;;;;;;;;5059954;28;20534;-61
2022/07/09 12:29:03;;;;;;;1.27;1.17;;;;;;;;;;5072913;28;20028;-60
2022/07/09 12:31:30;;;;;;;1.30;1.17;;;;;;;;;;5072843;28;20379;-61
2022/07/09 12:33:57;;;;;;;1.63;1.20;;;;;;;;;;5072990;28;20081;-61
2022/07/09 12:36:23;;;;;;;1.27;0.90;;;;;;;;;;5073156;28;20029;-61
2022/07/09 12:38:50;;;;;;;1.63;1.30;;;;;;;;;;5059874;28;21943;-61
2022/07/09 12:41:17;;;;;;;1.27;0.77;;;;;;;;;;5047697;28;20033;-61
2022/07/09 12:43:43;;;;;;;0.93;0.80;;;;;;;;;;5047984;28;20166;-60
2022/07/09 12:46:10;;;;;;;2.27;1.00;;;;;;;;;;5047395;28;20414;-60
2022/07/09 12:48:36;;;;;;;19.87;1.53;;;;;;;;;;5047750;28;20447;-62
2022/07/09 12:51:03;;;;;;;1.33;1.00;;;;;;;;;;5064991;28;20559;-60
2022/07/09 12:53:30;;;;;;;3.17;1.00;;;;;;;;;;5072928;28;20266;-60
2022/07/09 12:55:57;;;;;;;3.60;1.47;;;;;;;;;;5072515;28;20040;-60
2022/07/09 12:58:24;;;;;;;1.03;0.80;;;;;;;;;;5072612;28;20048;-60
2022/07/09 13:00:50;;;;;;;0.80;0.70;;;;;;;;;;5072271;28;20029;-62
2022/07/09 13:03:17;;;;;;;1.47;1.00;;;;;;;;;;5050067;28;20036;-61
2022/07/09 13:05:44;;;;;;;1.83;1.50;;;;;;;;;;5047454;28;20124;-60
2022/07/09 13:08:10;;;;;;;0.93;0.80;;;;;;;;;;5047497;28;20375;-60
2022/07/09 13:10:37;;;;;;;2.93;1.53;;;;;;;;;;5047329;28;20467;-61
2022/07/09 13:13:03;;;;;;;1.07;0.90;;;;;;;;;;5051749;28;20017;-60
2022/07/09 13:15:30;;;;;;;2.30;1.53;;;;;;;;;;5071819;28;20103;-60
2022/07/09 13:17:57;;;;;;;4.40;1.40;;;;;;;;;;5052095;28;20025;-60
2022/07/09 13:20:24;;;;;;;3.40;1.67;;;;;;;;;;5052383;28;20021;-60
2022/07/09 13:22:50;;;;;;;4.90;2.00;;;;;;;;;;5052317;28;20036;-60
2022/07/09 13:25:17;;;;;;;1.63;1.33;;;;;;;;;;5047660;28;20021;-60
2022/07/09 13:27:44;;;;;;;1.50;1.10;;;;;;;;;;5063519;28;20055;-61
2022/07/09 13:30:11;;;;;;;2.70;1.17;;;;;;;;;;5067006;28;20035;-60
2022/07/09 13:32:38;;;;;;;3.20;2.23;;;;;;;;;;5067002;28;20375;-60
2022/07/09 13:35:05;;;;;;;6.30;2.73;;;;;;;;;;5071222;28;20429;-60
2022/07/09 13:37:33;;;;;;;4.57;2.23;;;;;;;;;;5072241;28;20111;-62
2022/07/09 13:39:59;;;;;;;2.53;1.40;;;;;;;;;;5053017;28;20052;-60
2022/07/09 13:42:26;;;;;;;2.60;2.03;;;;;;;;;;5052192;28;20369;-61
2022/07/09 13:44:53;;;;;;;2.57;1.77;;;;;;;;;;5052082;28;20021;-61
2022/07/09 13:47:19;;;;;;;4.80;1.27;;;;;;;;;;5047201;28;20637;-61
2022/07/09 13:49:46;;;;;;;4.97;1.83;;;;;;;;;;5048122;28;20029;-61
2022/07/09 13:52:13;;;;;;;3.47;1.43;;;;;;;;;;5067222;28;20115;-61
2022/07/09 13:54:39;;;;;;;3.13;1.43;;;;;;;;;;5067048;28;20082;-61
2022/07/09 13:57:06;;;;;;;3.33;1.63;;;;;;;;;;5070746;28;20024;-60
2022/07/09 13:59:33;;;;;;;3.17;1.90;;;;;;;;;;5072116;28;20032;-60
2022/07/09 14:02:00;;;;;;;2.60;1.67;;;;;;;;;;5070750;28;20487;-61
2022/07/09 14:04:26;;;;;;;3.20;1.77;;;;;;;;;;5051137;28;20068;-60
2022/07/09 14:06:53;;;;;;;3.37;1.80;;;;;;;;;;5052031;28;20531;-60
2022/07/09 14:09:23;;;;;;;3.10;1.83;;;;;;;;;;5060311;28;20035;-60
2022/07/09 14:11:49;;;;;;;0.87;0.77;;;;;;;;;;5066929;28;20048;-61
2022/07/09 14:14:16;;;;;;;5.73;1.80;;;;;;;;;;5066852;28;20082;-60
2022/07/09 14:16:43;;;;;;;2.60;1.60;;;;;;;;;;5066870;28;20043;-61
2022/07/09 14:19:09;;;;;;;1.63;1.40;;;;;;;;;;5059212;28;20029;-61
2022/07/09 14:21:36;;;;;;;2.30;1.70;;;;;;;;;;5051781;28;20029;-61
2022/07/09 14:24:03;;;;;;;2.23;1.50;;;;;;;;;;5051911;28;20092;-61
2022/07/09 14:26:29;;;;;;;2.10;1.70;;;;;;;;;;5051708;28;20017;-61
2022/07/09 14:28:56;;;;;;;2.40;1.33;;;;;;;;;;5051837;28;20048;-61
2022/07/09 14:31:24;;;;;;;3.30;1.83;;;;;;;;;;5061358;28;20033;-61
2022/07/09 14:33:51;;;;;;;3.73;1.30;;;;;;;;;;5069893;28;20426;-61
2022/07/09 14:36:17;;;;;;;2.30;1.47;;;;;;;;;;5070205;28;20025;-60
2022/07/09 14:38:44;;;;;;;4.77;1.30;;;;;;;;;;5069825;28;20032;-61
2022/07/09 14:41:11;;;;;;;7.33;1.13;;;;;;;;;;5073461;28;20079;-61
2022/07/09 14:43:40;;;;;;;1.20;1.03;;;;;;;;;;5062489;28;20385;-61
2022/07/09 14:46:10;;;;;;;2.07;0.73;;;;;;;;;;5055058;28;20106;-61
2022/07/09 14:48:37;;;;;;;1.80;1.00;;;;;;;;;;5054675;28;20025;-61